createdAt,value
2022-11-12T00:00:16.443Z,87.90
2022-11-12T00:01:52.479Z,87.90
2022-11-12T00:03:33.401Z,87.20
2022-11-12T00:05:14.764Z,86.80
2022-11-12T00:06:56.084Z,87.40
2022-11-12T00:08:31.597Z,87.00
2022-11-12T00:10:09.353Z,86.90
2022-11-12T00:11:45.153Z,87.40
2022-11-12T00:13:22.563Z,87.20
2022-11-12T00:14:57.165Z,87.30
2022-11-12T00:16:36.389Z,87.80
2022-11-12T00:18:11.813Z,88.20
2022-11-12T00:19:47.534Z,88.40
2022-11-12T00:21:28.079Z,88.30
2022-11-12T00:23:04.044Z,87.60
2022-11-12T00:24:41.777Z,87.90
2022-11-12T00:26:17.829Z,87.90
2022-11-12T00:27:53.265Z,87.60
2022-11-12T00:29:31.171Z,87.00
2022-11-12T00:31:12.393Z,87.60
2022-11-12T00:32:48.052Z,87.40
2022-11-12T00:34:23.660Z,87.10
2022-11-12T00:35:59.845Z,87.40
2022-11-12T00:37:35.266Z,87.60
2022-11-12T00:39:10.442Z,88.10
2022-11-12T00:40:46.528Z,88.50
2022-11-12T00:42:24.269Z,88.00
2022-11-12T00:43:59.681Z,87.90
2022-11-12T00:45:36.707Z,88.10
2022-11-12T00:47:18.376Z,88.00
2022-11-12T00:48:55.090Z,88.20
2022-11-12T00:50:30.938Z,88.20
2022-11-12T00:52:06.652Z,88.40
2022-11-12T00:53:43.189Z,88.50
2022-11-12T00:55:20.487Z,88.40
2022-11-12T00:56:56.998Z,88.10
2022-11-12T00:58:34.985Z,88.10
2022-11-12T01:00:16.663Z,88.50
2022-11-12T01:01:54.734Z,88.50
2022-11-12T01:03:35.718Z,88.60
2022-11-12T01:05:16.900Z,87.90
2022-11-12T01:06:57.641Z,88.30
2022-11-12T01:08:34.412Z,88.00
2022-11-12T01:10:11.600Z,87.80
2022-11-12T01:11:47.688Z,87.40
2022-11-12T01:13:22.613Z,87.00
2022-11-12T01:15:01.582Z,87.30
2022-11-12T01:16:40.100Z,87.20
2022-11-12T01:18:16.594Z,87.20
2022-11-12T01:19:52.301Z,87.80
2022-11-12T01:21:38.846Z,87.60
2022-11-12T01:23:14.398Z,87.90
2022-11-12T01:24:51.730Z,88.00
2022-11-12T01:26:27.997Z,87.60
2022-11-12T01:28:04.038Z,87.40
2022-11-12T01:29:39.598Z,87.30
2022-11-12T01:31:23.858Z,87.40
2022-11-12T01:32:59.168Z,86.90
2022-11-12T01:34:35.728Z,87.10
2022-11-12T01:36:12.501Z,87.10
2022-11-12T01:37:48.170Z,87.50
2022-11-12T01:39:23.684Z,87.50
2022-11-12T01:40:59.344Z,87.90
2022-11-12T01:42:36.933Z,88.20
2022-11-12T01:44:18.098Z,88.20
2022-11-12T01:45:54.449Z,88.10
2022-11-12T01:47:34.458Z,88.20
2022-11-12T01:49:17.362Z,88.30
2022-11-12T01:50:56.993Z,88.20
2022-11-12T01:52:36.719Z,88.10
2022-11-12T01:54:16.999Z,88.10
2022-11-12T01:55:53.556Z,87.90
2022-11-12T01:57:35.422Z,88.10
2022-11-12T01:59:16.642Z,88.40
2022-11-12T02:00:52.655Z,88.20
2022-11-12T02:02:28.585Z,87.80
2022-11-12T02:04:09.483Z,88.30
2022-11-12T02:05:56.634Z,87.90
2022-11-12T02:07:34.326Z,88.30
2022-11-12T02:09:10.622Z,87.90
2022-11-12T02:10:46.106Z,87.60
2022-11-12T02:12:21.891Z,87.30
2022-11-12T02:13:57.857Z,87.50
2022-11-12T02:15:34.257Z,88.00
2022-11-12T02:17:10.374Z,88.40
2022-11-12T02:18:45.776Z,88.30
2022-11-12T02:20:21.587Z,88.50
2022-11-12T02:21:58.726Z,88.70
2022-11-12T02:23:34.465Z,88.60
2022-11-12T02:25:15.671Z,88.40
2022-11-12T02:26:55.384Z,88.80
2022-11-12T02:28:32.610Z,88.90
2022-11-12T02:30:10.922Z,88.60
2022-11-12T02:31:46.823Z,88.70
2022-11-12T02:33:21.947Z,88.90
2022-11-12T02:34:59.051Z,88.90
2022-11-12T02:36:35.316Z,88.40
2022-11-12T02:38:12.060Z,88.90
2022-11-12T02:39:47.637Z,89.20
2022-11-12T02:41:28.143Z,89.20
2022-11-12T02:43:05.238Z,88.70
2022-11-12T02:44:41.564Z,89.20
2022-11-12T02:46:17.330Z,89.30
2022-11-12T02:47:53.243Z,88.70
2022-11-12T02:49:28.934Z,88.50
2022-11-12T02:51:04.736Z,88.70
2022-11-12T02:52:40.070Z,88.60
2022-11-12T02:54:16.512Z,88.50
2022-11-12T02:55:53.118Z,89.20
2022-11-12T02:57:13.035Z,89.20
2022-11-12T02:58:49.132Z,89.00
2022-11-12T03:00:24.245Z,89.30
2022-11-12T03:01:59.959Z,89.20
2022-11-12T03:03:43.060Z,89.40
2022-11-12T03:05:23.711Z,89.60
2022-11-12T03:07:04.593Z,89.60
2022-11-12T03:08:39.824Z,89.70
2022-11-12T03:10:16.667Z,89.60
2022-11-12T03:11:51.669Z,89.20
2022-11-12T03:13:26.923Z,89.40
2022-11-12T03:15:05.166Z,89.20
2022-11-12T03:16:40.792Z,89.10
2022-11-12T03:18:16.681Z,89.30
2022-11-12T03:19:51.393Z,89.20
2022-11-12T03:21:32.130Z,89.20
2022-11-12T03:23:10.470Z,89.40
2022-11-12T03:24:46.995Z,89.30
2022-11-12T03:26:24.713Z,89.40
2022-11-12T03:28:02.184Z,89.50
2022-11-12T03:29:37.555Z,89.40
2022-11-12T03:31:18.535Z,89.50
2022-11-12T03:32:53.521Z,89.70
2022-11-12T03:34:29.643Z,89.90
2022-11-12T03:36:05.836Z,89.70
2022-11-12T03:37:42.097Z,89.40
2022-11-12T03:39:17.762Z,89.20
2022-11-12T03:40:53.716Z,89.60
2022-11-12T03:42:31.467Z,89.60
2022-11-12T03:44:07.165Z,89.90
2022-11-12T03:45:42.810Z,89.90
2022-11-12T03:47:18.233Z,89.90
2022-11-12T03:48:53.901Z,89.90
2022-11-12T03:50:30.365Z,89.90
2022-11-12T03:52:06.288Z,89.90
2022-11-12T03:53:41.837Z,89.90
2022-11-12T03:55:21.087Z,89.90
2022-11-12T03:56:56.087Z,89.90
2022-11-12T03:58:32.885Z,89.90
2022-11-12T04:00:11.600Z,89.90
2022-11-12T04:01:46.478Z,89.90
2022-11-12T04:03:27.369Z,89.90
2022-11-12T04:05:10.165Z,89.90
2022-11-12T04:06:50.732Z,89.90
2022-11-12T04:08:26.965Z,89.90
2022-11-12T04:10:04.110Z,89.90
2022-11-12T04:11:39.481Z,89.90
2022-11-12T04:13:15.151Z,89.90
2022-11-12T04:14:52.769Z,89.90
2022-11-12T04:16:28.714Z,89.90
2022-11-12T04:18:04.895Z,89.90
2022-11-12T04:19:39.892Z,89.90
2022-11-12T04:21:20.564Z,89.90
2022-11-12T04:22:56.244Z,89.90
2022-11-12T04:24:34.340Z,89.90
2022-11-12T04:26:09.738Z,89.90
2022-11-12T04:27:44.670Z,89.90
2022-11-12T04:29:20.286Z,89.90
2022-11-12T04:30:57.254Z,89.90
2022-11-12T04:32:36.292Z,89.90
2022-11-12T04:34:11.668Z,89.90
2022-11-12T04:35:50.683Z,89.90
2022-11-12T04:37:29.626Z,89.90
2022-11-12T04:39:05.748Z,89.90
2022-11-12T04:40:41.903Z,89.90
2022-11-12T04:42:17.172Z,89.90
2022-11-12T04:43:52.972Z,89.90
2022-11-12T04:45:30.017Z,89.90
2022-11-12T04:47:06.921Z,89.90
2022-11-12T04:48:41.772Z,89.90
2022-11-12T04:50:19.028Z,89.90
2022-11-12T04:51:54.360Z,89.90
2022-11-12T04:53:30.930Z,89.70
2022-11-12T04:55:08.221Z,89.90
2022-11-12T04:56:44.202Z,89.90
2022-11-12T04:58:19.408Z,89.90
2022-11-12T04:59:55.421Z,89.90
2022-11-12T05:01:35.465Z,89.90
2022-11-12T05:03:18.266Z,89.90
2022-11-12T05:04:58.958Z,89.90
2022-11-12T05:06:40.245Z,89.90
2022-11-12T05:08:16.301Z,89.90
2022-11-12T05:09:52.732Z,89.90
2022-11-12T05:11:33.297Z,89.90
2022-11-12T05:13:09.603Z,89.90
2022-11-12T05:14:44.988Z,89.90
2022-11-12T05:16:22.327Z,89.90
2022-11-12T05:17:58.131Z,89.90
2022-11-12T05:19:35.646Z,89.90
2022-11-12T05:21:16.447Z,89.90
2022-11-12T05:23:05.646Z,89.90
2022-11-12T05:24:43.682Z,89.90
2022-11-12T05:26:19.878Z,89.90
2022-11-12T05:27:55.872Z,89.90
2022-11-12T05:29:31.897Z,89.90
2022-11-12T05:31:11.984Z,89.90
2022-11-12T05:32:47.733Z,89.90
2022-11-12T05:34:24.081Z,89.40
2022-11-12T05:36:01.682Z,89.50
2022-11-12T05:37:37.260Z,89.90
2022-11-12T05:39:13.165Z,89.90
2022-11-12T05:40:48.547Z,89.90
2022-11-12T05:42:26.136Z,89.90
2022-11-12T05:44:02.386Z,89.80
2022-11-12T05:45:43.058Z,89.80
2022-11-12T05:47:18.829Z,89.40
2022-11-12T05:48:55.489Z,89.00
2022-11-12T05:50:39.937Z,89.10
2022-11-12T05:52:27.444Z,88.70
2022-11-12T05:54:03.492Z,88.40
2022-11-12T05:55:40.563Z,88.40
2022-11-12T05:57:16.322Z,88.50
2022-11-12T05:58:51.283Z,88.60
2022-11-12T06:00:26.800Z,88.30
2022-11-12T06:02:02.374Z,88.30
2022-11-12T06:03:43.176Z,88.10
2022-11-12T06:05:23.920Z,88.00
2022-11-12T06:07:04.569Z,88.10
2022-11-12T06:08:42.109Z,87.50
2022-11-12T06:10:20.709Z,88.10
2022-11-12T06:11:57.055Z,87.40
2022-11-12T06:13:33.409Z,87.40
2022-11-12T06:15:09.466Z,88.10
2022-11-12T06:16:45.088Z,87.90
2022-11-12T06:18:20.753Z,87.80
2022-11-12T06:19:57.560Z,88.60
2022-11-12T06:21:34.372Z,89.20
2022-11-12T06:23:09.869Z,89.30
2022-11-12T06:24:47.674Z,89.40
2022-11-12T06:26:24.315Z,89.70
2022-11-12T06:27:59.112Z,89.60
2022-11-12T06:29:34.474Z,89.40
2022-11-12T06:31:16.200Z,89.70
2022-11-12T06:32:51.893Z,89.60
2022-11-12T06:34:28.028Z,89.80
2022-11-12T06:36:06.634Z,89.20
2022-11-12T06:37:42.567Z,89.20
2022-11-12T06:39:18.324Z,89.30
2022-11-12T06:40:57.131Z,89.40
2022-11-12T06:42:33.801Z,89.20
2022-11-12T06:44:09.862Z,88.70
2022-11-12T06:45:47.264Z,88.30
2022-11-12T06:47:23.903Z,88.60
2022-11-12T06:49:00.100Z,88.70
2022-11-12T06:50:35.180Z,88.90
2022-11-12T06:52:16.261Z,88.80
2022-11-12T06:53:53.310Z,88.70
2022-11-12T06:55:29.966Z,88.70
2022-11-12T06:57:07.035Z,88.70
2022-11-12T06:58:43.493Z,88.50
2022-11-12T07:00:20.112Z,88.10
2022-11-12T07:01:56.707Z,88.00
2022-11-12T07:03:39.235Z,88.00
2022-11-12T07:05:20.277Z,88.20
2022-11-12T07:07:01.145Z,88.10
2022-11-12T07:08:37.498Z,88.40
2022-11-12T07:10:13.419Z,88.20
2022-11-12T07:11:49.894Z,87.90
2022-11-12T07:13:27.149Z,87.70
2022-11-12T07:15:02.751Z,87.50
2022-11-12T07:16:38.149Z,87.10
2022-11-12T07:18:13.897Z,86.90
2022-11-12T07:19:49.593Z,86.70
2022-11-12T07:21:30.774Z,86.50
2022-11-12T07:23:06.163Z,86.40
2022-11-12T07:24:41.650Z,86.60
2022-11-12T07:26:19.913Z,86.90
2022-11-12T07:27:54.772Z,86.80
2022-11-12T07:29:47.033Z,86.90
2022-11-12T07:31:28.462Z,87.10
2022-11-12T07:33:04.925Z,87.20
2022-11-12T07:34:40.221Z,87.40
2022-11-12T07:36:18.425Z,86.80
2022-11-12T07:37:59.436Z,86.70
2022-11-12T07:39:35.435Z,86.90
2022-11-12T07:41:19.140Z,86.60
2022-11-12T07:42:54.827Z,86.80
2022-11-12T07:44:31.485Z,86.80
2022-11-12T07:46:11.124Z,86.70
2022-11-12T07:47:46.831Z,87.00
2022-11-12T07:49:22.906Z,87.20
2022-11-12T07:51:02.271Z,87.10
2022-11-12T07:52:37.130Z,87.10
2022-11-12T07:54:12.213Z,87.50
2022-11-12T07:55:54.583Z,87.60
2022-11-12T07:57:32.276Z,87.90
2022-11-12T07:59:07.457Z,88.00
2022-11-12T08:00:44.397Z,88.10
2022-11-12T08:02:19.623Z,88.50
2022-11-12T08:04:03.126Z,88.50
2022-11-12T08:05:44.291Z,88.70
2022-11-12T08:07:20.104Z,89.10
2022-11-12T08:08:57.538Z,89.20
2022-11-12T08:10:35.059Z,89.20
2022-11-12T08:12:10.782Z,89.10
2022-11-12T08:13:47.774Z,89.10
2022-11-12T08:15:24.346Z,89.10
2022-11-12T08:17:01.233Z,89.10
2022-11-12T08:18:37.634Z,89.10
2022-11-12T08:20:14.647Z,89.20
2022-11-12T08:21:52.634Z,89.00
2022-11-12T08:23:28.862Z,89.10
2022-11-12T08:25:05.366Z,88.90
2022-11-12T08:26:43.296Z,89.10
2022-11-12T08:28:17.913Z,88.90
2022-11-12T08:29:52.998Z,88.80
2022-11-12T08:31:34.553Z,88.80
2022-11-12T08:33:10.896Z,88.60
2022-11-12T08:34:46.192Z,88.70
2022-11-12T08:36:21.724Z,88.90
2022-11-12T08:38:02.123Z,88.70
2022-11-12T08:39:37.287Z,88.60
2022-11-12T08:41:17.686Z,88.50
2022-11-12T08:43:01.105Z,88.70
2022-11-12T08:44:36.408Z,88.60
2022-11-12T08:46:11.964Z,88.50
2022-11-12T08:47:46.916Z,88.30
2022-11-12T08:49:23.790Z,88.40
2022-11-12T08:51:02.077Z,88.60
2022-11-12T08:52:37.874Z,88.50
2022-11-12T08:54:14.119Z,88.50
2022-11-12T08:55:54.680Z,88.20
2022-11-12T08:57:30.587Z,88.20
2022-11-12T08:59:07.545Z,87.70
2022-11-12T09:00:44.136Z,87.70
2022-11-12T09:02:21.154Z,87.80
2022-11-12T09:04:01.915Z,88.00
2022-11-12T09:05:44.252Z,87.90
2022-11-12T09:07:48.031Z,88.00
2022-11-12T09:09:16.749Z,87.80
2022-11-12T09:10:52.658Z,87.60
2022-11-12T09:12:27.850Z,87.70
2022-11-12T09:14:04.045Z,87.60
2022-11-12T09:15:39.172Z,87.40
2022-11-12T09:17:14.649Z,87.40
2022-11-12T09:18:49.526Z,87.30
2022-11-12T09:20:26.610Z,87.20
2022-11-12T09:22:05.001Z,87.30
2022-11-12T09:23:40.388Z,87.10
2022-11-12T09:25:16.181Z,86.80
2022-11-12T09:26:53.348Z,86.50
2022-11-12T09:28:29.312Z,86.20
2022-11-12T09:30:06.677Z,86.20
2022-11-12T09:31:42.898Z,86.10
2022-11-12T09:33:22.676Z,85.80
2022-11-12T09:34:59.783Z,85.90
2022-11-12T09:36:39.636Z,85.70
2022-11-12T09:38:17.831Z,85.50
2022-11-12T09:39:53.333Z,85.20
2022-11-12T09:41:36.449Z,85.20
2022-11-12T09:43:20.818Z,85.40
2022-11-12T09:45:00.514Z,85.10
2022-11-12T09:46:43.360Z,84.90
2022-11-12T09:48:25.082Z,84.80
2022-11-12T09:50:18.557Z,84.40
2022-11-12T09:51:57.016Z,84.20
2022-11-12T09:53:44.090Z,84.20
2022-11-12T09:55:28.656Z,84.20
2022-11-12T09:57:03.998Z,84.20
2022-11-12T09:58:43.341Z,83.90
2022-11-12T10:00:20.951Z,84.00
2022-11-12T10:02:05.971Z,83.80
2022-11-12T10:03:58.654Z,83.80
2022-11-12T10:05:48.320Z,83.50
2022-11-12T10:07:43.386Z,83.40
2022-11-12T10:09:25.813Z,83.30
2022-11-12T10:11:24.054Z,83.60
2022-11-12T10:13:14.883Z,83.10
2022-11-12T10:15:13.404Z,83.00
2022-11-12T10:16:57.793Z,83.00
2022-11-12T10:18:51.445Z,82.50
2022-11-12T10:20:38.652Z,82.70
2022-11-12T10:22:40.682Z,82.30
2022-11-12T10:24:16.418Z,82.10
2022-11-12T10:25:58.241Z,82.20
2022-11-12T10:27:38.995Z,82.00
2022-11-12T10:29:25.666Z,81.90
2022-11-12T10:31:10.671Z,81.90
2022-11-12T10:32:47.011Z,81.80
2022-11-12T10:34:24.011Z,81.60
2022-11-12T10:36:17.014Z,81.60
2022-11-12T10:37:58.791Z,81.30
2022-11-12T10:39:36.404Z,81.40
2022-11-12T10:41:25.668Z,81.00
2022-11-12T10:43:04.603Z,80.50
2022-11-12T10:44:40.972Z,80.80
2022-11-12T10:46:21.231Z,80.80
2022-11-12T10:47:56.547Z,80.50
2022-11-12T10:49:31.635Z,80.40
2022-11-12T10:51:23.274Z,80.70
2022-11-12T10:53:04.796Z,80.30
2022-11-12T10:54:40.371Z,79.40
2022-11-12T10:56:27.682Z,78.70
2022-11-12T10:58:17.617Z,79.10
2022-11-12T11:00:08.724Z,78.80
2022-11-12T11:01:53.755Z,79.10
2022-11-12T11:03:36.835Z,79.00
2022-11-12T11:05:34.128Z,78.70
2022-11-12T11:07:23.009Z,78.20
2022-11-12T11:09:16.686Z,78.50
2022-11-12T11:11:25.928Z,78.40
2022-11-12T11:13:21.127Z,78.40
2022-11-12T11:15:18.047Z,77.80
2022-11-12T11:16:58.000Z,77.30
2022-11-12T11:18:35.960Z,77.40
2022-11-12T11:20:21.513Z,77.30
2022-11-12T11:22:30.082Z,77.10
2022-11-12T11:24:34.656Z,76.90
2022-11-12T11:26:32.811Z,76.50
2022-11-12T11:28:21.898Z,76.40
2022-11-12T11:30:08.097Z,76.00
2022-11-12T11:31:51.146Z,76.00
2022-11-12T11:33:40.482Z,75.70
2022-11-12T11:35:27.153Z,75.30
2022-11-12T11:37:19.810Z,75.10
2022-11-12T11:39:01.270Z,74.90
2022-11-12T11:40:42.223Z,73.80
2022-11-12T11:42:43.237Z,74.20
2022-11-12T11:44:34.854Z,73.00
2022-11-12T11:46:27.023Z,73.10
2022-11-12T11:48:12.774Z,73.40
2022-11-12T11:50:22.281Z,73.40
2022-11-12T11:52:07.795Z,73.60
2022-11-12T11:53:56.235Z,73.10
2022-11-12T11:55:49.389Z,73.60
2022-11-12T11:57:33.163Z,73.50
2022-11-12T11:59:30.610Z,72.80
2022-11-12T12:01:20.370Z,72.00
2022-11-12T12:03:18.035Z,70.30
2022-11-12T12:05:20.314Z,70.20
2022-11-12T12:07:07.995Z,71.70
2022-11-12T12:09:03.273Z,70.30
2022-11-12T12:11:10.981Z,71.00
2022-11-12T12:13:00.347Z,71.00
2022-11-12T12:14:50.414Z,70.50
2022-11-12T12:16:43.871Z,70.50
2022-11-12T12:18:34.478Z,69.40
2022-11-12T12:20:21.188Z,70.40
2022-11-12T12:21:59.077Z,69.80
2022-11-12T12:23:39.791Z,68.50
2022-11-12T12:25:21.693Z,68.10
2022-11-12T12:27:02.544Z,67.70
2022-11-12T12:28:45.707Z,69.20
2022-11-12T12:30:23.054Z,67.30
2022-11-12T12:32:06.810Z,66.20
2022-11-12T12:33:51.412Z,66.40
2022-11-12T12:35:31.524Z,67.30
2022-11-12T12:37:21.092Z,66.80
2022-11-12T12:39:13.612Z,66.10
2022-11-12T12:40:55.402Z,67.90
2022-11-12T12:42:40.244Z,66.50
2022-11-12T12:44:16.509Z,65.60
2022-11-12T12:45:51.183Z,67.10
2022-11-12T12:47:29.322Z,67.00
2022-11-12T12:49:06.907Z,66.50
2022-11-12T12:50:43.231Z,67.50
2022-11-12T12:52:19.674Z,66.70
2022-11-12T12:53:55.032Z,67.50
2022-11-12T12:55:38.711Z,66.90
2022-11-12T12:57:37.227Z,66.40
2022-11-12T12:59:24.387Z,66.80
2022-11-12T13:01:04.816Z,67.80
2022-11-12T13:02:40.934Z,67.90
2022-11-12T13:04:53.577Z,68.10
2022-11-12T13:06:35.535Z,67.80
2022-11-12T13:08:01.021Z,66.50
2022-11-12T13:09:36.140Z,65.40
2022-11-12T13:11:54.126Z,66.20
2022-11-12T13:13:35.341Z,65.80
2022-11-12T13:15:16.350Z,66.10
2022-11-12T13:17:00.549Z,66.50
2022-11-12T13:19:01.401Z,66.60
2022-11-12T13:20:41.643Z,67.40
2022-11-12T13:22:50.506Z,66.20
2022-11-12T13:25:02.577Z,65.90
2022-11-12T13:26:54.286Z,66.30
2022-11-12T13:28:31.769Z,64.90
2022-11-12T13:30:30.943Z,65.40
2022-11-12T13:32:32.774Z,65.50
2022-11-12T13:34:29.010Z,64.40
2022-11-12T13:36:27.933Z,64.50
2022-11-12T13:38:13.060Z,64.20
2022-11-12T13:39:48.715Z,64.70
2022-11-12T13:41:30.377Z,64.10
2022-11-12T13:43:31.007Z,64.20
2022-11-12T13:45:10.520Z,64.10
2022-11-12T13:46:50.280Z,64.10
2022-11-12T13:48:33.599Z,65.20
2022-11-12T13:50:15.102Z,64.70
2022-11-12T13:51:51.146Z,63.60
2022-11-12T13:53:29.011Z,64.80
2022-11-12T13:55:12.740Z,64.60
2022-11-12T13:56:48.538Z,63.50
2022-11-12T13:58:30.569Z,63.40
2022-11-12T14:00:27.094Z,63.30
2022-11-12T14:02:05.230Z,64.90
2022-11-12T14:03:50.086Z,63.50
2022-11-12T14:05:33.466Z,63.00
2022-11-12T14:07:40.222Z,62.60
2022-11-12T14:09:44.342Z,63.30
2022-11-12T14:11:52.426Z,62.60
2022-11-12T14:13:52.439Z,63.80
2022-11-12T14:15:50.454Z,63.80
2022-11-12T14:17:36.673Z,63.50
2022-11-12T14:19:56.352Z,63.10
2022-11-12T14:21:35.331Z,64.50
2022-11-12T14:23:15.192Z,63.90
2022-11-12T14:25:00.487Z,64.00
2022-11-12T14:26:40.239Z,64.00
2022-11-12T14:28:36.873Z,64.40
2022-11-12T14:30:20.890Z,64.10
2022-11-12T14:32:02.100Z,64.70
2022-11-12T14:33:37.470Z,64.20
2022-11-12T14:35:34.500Z,65.30
2022-11-12T14:37:37.309Z,65.30
2022-11-12T14:39:16.948Z,65.40
2022-11-12T14:40:55.004Z,65.30
2022-11-12T14:42:32.399Z,64.80
2022-11-12T14:44:18.266Z,65.60
2022-11-12T14:45:56.222Z,65.50
2022-11-12T14:47:31.421Z,66.10
2022-11-12T14:49:18.079Z,65.40
2022-11-12T14:51:03.353Z,64.80
2022-11-12T14:52:44.874Z,65.20
2022-11-12T14:54:29.265Z,65.20
2022-11-12T14:56:07.027Z,64.30
2022-11-12T14:57:27.363Z,64.30
2022-11-12T14:59:03.912Z,64.70
2022-11-12T15:00:44.287Z,65.00
2022-11-12T15:02:46.872Z,65.00
2022-11-12T15:04:24.518Z,65.60
2022-11-12T15:06:11.599Z,66.10
2022-11-12T15:07:56.383Z,65.60
2022-11-12T15:09:36.241Z,66.20
2022-11-12T15:11:25.921Z,66.60
2022-11-12T15:13:05.359Z,67.20
2022-11-12T15:14:41.388Z,67.80
2022-11-12T15:16:22.346Z,68.20
2022-11-12T15:18:00.513Z,67.90
2022-11-12T15:19:51.468Z,68.00
2022-11-12T15:21:32.382Z,68.00
2022-11-12T15:23:17.647Z,68.10
2022-11-12T15:24:54.036Z,68.60
2022-11-12T15:26:35.597Z,68.80
2022-11-12T15:28:20.899Z,69.20
2022-11-12T15:29:42.207Z,70.00
2022-11-12T15:31:22.881Z,70.20
2022-11-12T15:33:21.034Z,70.00
2022-11-12T15:34:57.769Z,70.00
2022-11-12T15:36:33.042Z,70.30
2022-11-12T15:38:17.892Z,70.80
2022-11-12T15:39:59.236Z,70.60
2022-11-12T15:41:35.449Z,71.10
2022-11-12T15:43:16.075Z,70.70
2022-11-12T15:44:56.051Z,71.20
2022-11-12T15:46:31.828Z,71.50
2022-11-12T15:48:10.153Z,71.90
2022-11-12T15:49:50.813Z,71.80
2022-11-12T15:51:33.121Z,71.90
2022-11-12T15:53:07.371Z,72.60
2022-11-12T15:54:41.592Z,72.10
2022-11-12T15:56:20.903Z,72.30
2022-11-12T15:57:55.787Z,72.10
2022-11-12T15:59:30.726Z,72.20
2022-11-12T16:01:11.407Z,73.00
2022-11-12T16:02:51.820Z,73.30
2022-11-12T16:04:33.832Z,73.50
2022-11-12T16:06:16.792Z,73.50
2022-11-12T16:07:52.469Z,73.30
2022-11-12T16:09:28.360Z,73.00
2022-11-12T16:11:03.666Z,72.80
2022-11-12T16:12:40.748Z,73.00
2022-11-12T16:14:15.821Z,73.00
2022-11-12T16:15:52.670Z,73.20
2022-11-12T16:17:29.530Z,73.00
2022-11-12T16:19:10.022Z,73.30
2022-11-12T16:20:46.562Z,73.20
2022-11-12T16:22:21.894Z,73.20
2022-11-12T16:23:59.437Z,73.70
2022-11-12T16:25:37.741Z,73.70
2022-11-12T16:27:14.611Z,73.70
2022-11-12T16:28:51.140Z,73.40
2022-11-12T16:30:28.972Z,73.40
2022-11-12T16:32:05.125Z,73.50
2022-11-12T16:33:40.079Z,73.40
2022-11-12T16:35:16.292Z,73.50
2022-11-12T16:36:51.646Z,73.90
2022-11-12T16:38:29.968Z,73.60
2022-11-12T16:40:13.407Z,74.00
2022-11-12T16:41:50.540Z,73.50
2022-11-12T16:43:26.293Z,73.90
2022-11-12T16:45:04.191Z,74.50
2022-11-12T16:46:42.325Z,74.60
2022-11-12T16:48:21.538Z,75.00
2022-11-12T16:49:57.550Z,75.20
2022-11-12T16:51:38.414Z,75.50
2022-11-12T16:53:14.098Z,76.30
2022-11-12T16:54:50.501Z,76.20
2022-11-12T16:56:27.843Z,76.10
2022-11-12T16:58:03.696Z,75.80
2022-11-12T16:59:41.696Z,75.80
2022-11-12T17:01:25.854Z,75.40
2022-11-12T17:03:02.950Z,75.00
2022-11-12T17:04:43.830Z,75.20
2022-11-12T17:06:32.800Z,75.40
2022-11-12T17:08:09.534Z,75.80
2022-11-12T17:09:45.433Z,75.90
2022-11-12T17:11:27.310Z,76.00
2022-11-12T17:13:04.387Z,75.80
2022-11-12T17:14:40.367Z,75.60
2022-11-12T17:16:16.456Z,75.50
2022-11-12T17:17:53.463Z,75.50
2022-11-12T17:19:28.546Z,75.40
2022-11-12T17:21:12.263Z,75.60
2022-11-12T17:22:48.216Z,75.50
2022-11-12T17:24:26.620Z,75.60
2022-11-12T17:26:04.108Z,75.80
2022-11-12T17:27:40.126Z,75.40
2022-11-12T17:29:15.046Z,75.40
2022-11-12T17:31:01.341Z,75.30
2022-11-12T17:32:37.596Z,75.30
2022-11-12T17:34:13.527Z,75.40
2022-11-12T17:35:48.882Z,75.60
2022-11-12T17:37:25.156Z,75.40
2022-11-12T17:39:01.394Z,75.40
2022-11-12T17:40:37.036Z,75.80
2022-11-12T17:42:12.921Z,75.60
2022-11-12T17:43:54.275Z,76.30
2022-11-12T17:45:29.139Z,76.70
2022-11-12T17:47:04.527Z,76.70
2022-11-12T17:48:41.043Z,77.20
2022-11-12T17:50:18.590Z,77.50
2022-11-12T17:51:54.442Z,77.70
2022-11-12T17:53:30.571Z,78.10
2022-11-12T17:55:08.831Z,77.80
2022-11-12T17:56:44.609Z,78.40
2022-11-12T17:58:19.699Z,78.70
2022-11-12T17:59:55.881Z,78.40
2022-11-12T18:01:35.581Z,78.40
2022-11-12T18:03:16.327Z,78.60
2022-11-12T18:04:56.902Z,78.40
2022-11-12T18:06:37.941Z,78.20
2022-11-12T18:08:14.509Z,78.40
2022-11-12T18:09:50.497Z,78.40
2022-11-12T18:11:37.863Z,78.70
2022-11-12T18:13:15.297Z,78.90
2022-11-12T18:14:52.163Z,78.90
2022-11-12T18:16:29.480Z,78.70
2022-11-12T18:18:06.024Z,78.90
2022-11-12T18:19:41.994Z,79.00
2022-11-12T18:21:23.635Z,78.80
2022-11-12T18:23:00.109Z,78.70
2022-11-12T18:24:36.566Z,78.90
2022-11-12T18:26:13.833Z,79.20
2022-11-12T18:27:50.673Z,79.40
2022-11-12T18:29:27.169Z,79.60
2022-11-12T18:31:05.674Z,79.60
2022-11-12T18:32:43.857Z,79.70
2022-11-12T18:34:19.140Z,79.30
2022-11-12T18:36:01.990Z,79.20
2022-11-12T18:37:37.552Z,79.50
2022-11-12T18:39:13.325Z,79.60
2022-11-12T18:40:48.606Z,79.50
2022-11-12T18:42:23.973Z,79.50
2022-11-12T18:43:58.514Z,79.50
2022-11-12T18:45:33.997Z,79.70
2022-11-12T18:47:09.760Z,79.60
2022-11-12T18:48:48.109Z,79.50
2022-11-12T18:50:23.403Z,79.60
2022-11-12T18:51:58.338Z,79.80
2022-11-12T18:53:33.778Z,79.70
2022-11-12T18:55:10.309Z,79.70
2022-11-12T18:56:46.344Z,79.80
2022-11-12T18:58:21.188Z,80.00
2022-11-12T18:59:56.852Z,80.40
2022-11-12T19:01:37.093Z,80.40
2022-11-12T19:03:17.936Z,80.60
2022-11-12T19:05:00.082Z,80.80
2022-11-12T19:06:40.696Z,80.90
2022-11-12T19:08:01.474Z,80.80
2022-11-12T19:09:38.056Z,80.60
2022-11-12T19:11:19.746Z,80.60
2022-11-12T19:12:54.799Z,80.80
2022-11-12T19:14:33.180Z,80.90
2022-11-12T19:16:11.825Z,81.20
2022-11-12T19:17:47.742Z,81.30
2022-11-12T19:19:24.259Z,81.60
2022-11-12T19:21:06.984Z,81.80
2022-11-12T19:22:43.071Z,81.80
2022-11-12T19:24:19.173Z,81.30
2022-11-12T19:25:55.086Z,81.30
2022-11-12T19:27:30.949Z,81.20
2022-11-12T19:29:06.375Z,81.20
2022-11-12T19:30:41.616Z,81.00
2022-11-12T19:32:16.589Z,80.80
2022-11-12T19:33:52.262Z,80.60
2022-11-12T19:35:26.826Z,80.70
2022-11-12T19:37:31.925Z,81.00
2022-11-12T19:39:00.288Z,81.30
2022-11-12T19:40:35.205Z,81.00
2022-11-12T19:42:10.881Z,81.10
2022-11-12T19:43:46.266Z,81.40
2022-11-12T19:45:21.538Z,81.50
2022-11-12T19:46:56.397Z,81.30
2022-11-12T19:48:31.478Z,81.30
2022-11-12T19:50:09.137Z,81.20
2022-11-12T19:51:44.711Z,81.20
2022-11-12T19:53:22.393Z,81.00
2022-11-12T19:54:57.869Z,81.40
2022-11-12T19:56:34.258Z,81.40
2022-11-12T19:58:10.055Z,81.40
2022-11-12T19:59:45.940Z,81.40
2022-11-12T20:01:26.711Z,81.10
2022-11-12T20:03:02.838Z,80.80
2022-11-12T20:04:43.698Z,80.60
2022-11-12T20:06:24.538Z,80.30
2022-11-12T20:07:59.722Z,80.10
2022-11-12T20:09:36.018Z,80.20
2022-11-12T20:11:16.531Z,80.30
2022-11-12T20:12:52.231Z,80.30
2022-11-12T20:14:28.102Z,80.90
2022-11-12T20:16:07.189Z,82.10
2022-11-12T20:17:42.875Z,82.90
2022-11-12T20:19:19.021Z,82.70
2022-11-12T20:20:57.337Z,82.70
2022-11-12T20:22:33.317Z,82.10
2022-11-12T20:24:10.183Z,82.40
2022-11-12T20:25:47.318Z,82.00
2022-11-12T20:27:22.994Z,81.60
2022-11-12T20:28:58.659Z,81.20
2022-11-12T20:30:34.267Z,81.20
2022-11-12T20:32:09.799Z,80.90
2022-11-12T20:33:45.516Z,80.70
2022-11-12T20:35:22.564Z,80.60
2022-11-12T20:36:57.573Z,80.60
2022-11-12T20:38:35.833Z,80.70
2022-11-12T20:40:11.795Z,80.80
2022-11-12T20:41:48.738Z,81.40
2022-11-12T20:43:28.990Z,82.80
2022-11-12T20:45:05.679Z,83.90
2022-11-12T20:46:41.795Z,84.40
2022-11-12T20:48:17.444Z,84.20
2022-11-12T20:49:52.955Z,84.10
2022-11-12T20:51:33.366Z,84.40
2022-11-12T20:53:09.304Z,84.20
2022-11-12T20:54:44.818Z,83.40
2022-11-12T20:56:24.385Z,83.10
2022-11-12T20:58:01.774Z,82.90
2022-11-12T20:59:37.047Z,82.80
2022-11-12T21:01:20.930Z,82.50
2022-11-12T21:02:56.030Z,82.20
2022-11-12T21:04:36.784Z,82.10
2022-11-12T21:06:20.896Z,82.10
2022-11-12T21:07:56.364Z,81.70
2022-11-12T21:09:32.036Z,81.70
2022-11-12T21:11:14.598Z,81.90
2022-11-12T21:12:49.764Z,82.00
2022-11-12T21:14:26.232Z,82.20
2022-11-12T21:16:02.031Z,82.10
2022-11-12T21:17:38.374Z,82.20
2022-11-12T21:19:13.781Z,81.90
2022-11-12T21:20:49.419Z,82.10
2022-11-12T21:22:25.113Z,82.30
2022-11-12T21:24:04.646Z,82.00